Alma, CO (80420)

5:36 AM MDT on July 24, 2016 (GMT -0600)
Placer Valley, Park County | | Change Station

Elev 11056 ft 39.35 °N, 106.06 °W | Updated 14 seconds ago

Clear
Clear
42.1 °F
Feels Like 42 °F
N
0.0
Wind Variable Wind from North
Gusts 0.0 mph

Today
High -- | Low -- °F
--% Chance of Precip.
Yesterday
High -- | Low -- °F
Precip. -- in
Pressure 30.68 in
Visibility 10.0 miles
Clouds Clear
Windchill 42 °F
Dew Point 42 °F
Humidity 99%
Rainfall 0.07 in
Snow Depth Not available.
5:57 AM 8:23 PM
Waning Gibbous, 77% visible
METAR KCCU 241116Z AUTO 00000KT 10SM CLR 12/00 A3068 RMK AO2
Pressure 30.68 in
Visibility 10.0 miles
Clouds Clear
Windchill 42 °F
Dew Point 42 °F
Humidity 99%
Rainfall 0.07 in
Snow Depth Not available.
5:57 AM 8:23 PM
Waning Gibbous, 77% visible
METAR KCCU 241116Z AUTO 00000KT 10SM CLR 12/00 A3068 RMK AO2

10-Day Weather Forecast

Almanac

Astronomy

Jul. 24, 2016 Rise Set
Actual Time
Civil Twilight
Nautical Twilight
Astronomical Twilight
Moon
Length of Visible Light
Length of Day
Tomorrow will be .
, % of the Moon is Illuminated

Today's Extremes

State Highs State Lows

Community

WunderPhotos

Upload Photos

1,927,048 photos uploaded!

WunderBlog® & News

Nearby

Air Quality

  Air Quality AQ Index Pollutant
Not available.

Snow Depth

Station Depth Elevation

Earthquake Activity

City Distance Mag. Time & Date
Minimum magnitude displayed is 2.5.

Coastal Water Temperatures

Place Temperature

Stations

Nearby Weather Stations

Station Location Temp. Windchill Dew Point Humidity Wind Precip. Elev Updated Type
                   

Watches & Warnings

There are currently no watches in effect.